Time;durP1;ratioP1;P1;durP2;ratioP2;P2;SDS_P1;SDS_P2;PMS_P1;PMS_P2;Temp;Humidity;BMP_temperature;BMP_pressure;BME280_temperature;BME280_humidity;BME280_pressure;Samples;Min_cycle;Max_cycle;Signal;HPM_P1;HPM_P2
2022/06/08 00:02:03;;;;;;;11.15;8.63;;;17.30;75.50;;;;;;5113676;28;20031;-31
2022/06/08 00:04:28;;;;;;;9.30;8.32;;;17.30;75.60;;;;;;5113711;28;20028;-31
2022/06/08 00:06:54;;;;;;;11.32;8.40;;;17.30;75.80;;;;;;5113565;28;20064;-33
2022/06/08 00:09:20;;;;;;;10.50;8.27;;;17.20;75.90;;;;;;5113737;28;20427;-33
2022/06/08 00:11:46;;;;;;;9.73;8.38;;;17.20;76.00;;;;;;5113297;28;20032;-31
2022/06/08 00:14:13;;;;;;;10.10;7.72;;;17.20;76.10;;;;;;5112533;28;20043;-30
2022/06/08 00:16:39;;;;;;;9.50;8.27;;;17.20;76.30;;;;;;5113361;28;20019;-30
2022/06/08 00:19:05;;;;;;;9.48;8.30;;;17.20;76.40;;;;;;5112019;28;20045;-30
2022/06/08 00:21:30;;;;;;;9.27;8.00;;;17.10;76.40;;;;;;5113224;28;20015;-30
2022/06/08 00:23:56;;;;;;;9.52;8.15;;;17.10;76.50;;;;;;5113242;27;20023;-30
2022/06/08 00:26:24;;;;;;;9.77;8.25;;;17.10;76.70;;;;;;5113501;28;20075;-29
2022/06/08 00:28:50;;;;;;;9.18;8.15;;;17.00;76.70;;;;;;5113145;28;20020;-29
2022/06/08 00:31:16;;;;;;;9.50;7.82;;;17.00;76.80;;;;;;5112305;28;20027;-30
2022/06/08 00:33:41;;;;;;;9.80;8.30;;;17.00;77.00;;;;;;5112902;28;20069;-29
2022/06/08 00:36:07;;;;;;;11.60;9.15;;;17.00;77.10;;;;;;5113018;28;20022;-29
2022/06/08 00:38:33;;;;;;;10.13;8.27;;;16.90;77.10;;;;;;5113749;28;20024;-29
2022/06/08 00:41:10;;;;;;;9.20;7.95;;;17.00;77.20;;;;;;5112965;28;20045;-28
2022/06/08 00:43:36;;;;;;;9.57;8.38;;;17.00;77.20;;;;;;5113165;28;20108;-29
2022/06/08 00:46:04;;;;;;;10.15;7.88;;;17.00;77.20;;;;;;5111351;28;20106;-29
2022/06/08 00:48:36;;;;;;;10.32;8.98;;;17.00;77.20;;;;;;5113599;28;20019;-29
2022/06/08 00:51:02;;;;;;;9.73;8.30;;;17.00;77.20;;;;;;5112964;28;20024;-29
2022/06/08 00:53:40;;;;;;;9.48;8.38;;;17.00;77.20;;;;;;5112746;28;20020;-30
2022/06/08 00:56:12;;;;;;;11.30;8.95;;;17.00;77.30;;;;;;5112660;27;20450;-30
2022/06/08 00:58:38;;;;;;;12.50;8.50;;;17.10;77.40;;;;;;5112630;28;20110;-30
2022/06/08 01:01:04;;;;;;;9.20;8.20;;;17.10;77.40;;;;;;5112931;28;20500;-30
2022/06/08 01:03:30;;;;;;;9.70;8.23;;;17.10;77.40;;;;;;5112704;28;20102;-29
2022/06/08 01:06:00;;;;;;;8.75;7.50;;;17.10;77.40;;;;;;5112960;28;20073;-29
2022/06/08 01:08:31;;;;;;;11.10;7.68;;;17.20;77.50;;;;;;5112723;28;20031;-31
2022/06/08 01:11:00;;;;;;;9.30;8.30;;;17.20;77.50;;;;;;5112684;28;20031;-30
2022/06/08 01:13:32;;;;;;;10.75;8.82;;;17.20;77.40;;;;;;5112610;28;20030;-30
2022/06/08 01:16:02;;;;;;;10.45;8.70;;;17.20;77.50;;;;;;5112603;28;20027;-35
2022/06/08 01:18:28;;;;;;;10.57;8.38;;;17.30;77.50;;;;;;5112613;28;20032;-28
2022/06/08 01:21:21;;;;;;;9.32;8.02;;;17.30;77.50;;;;;;5112682;28;20051;-30
2022/06/08 01:23:49;;;;;;;9.15;8.25;;;17.30;77.40;;;;;;5112524;28;20030;-31
2022/06/08 01:26:20;;;;;;;9.63;7.93;;;17.30;77.40;;;;;;5112622;28;20114;-29
2022/06/08 01:29:14;;;;;;;10.48;8.40;;;17.30;77.60;;;;;;5111190;28;20024;-31
2022/06/08 01:31:57;;;;;;;9.90;8.90;;;17.30;77.80;;;;;;5112586;28;20427;-29
2022/06/08 01:34:31;;;;;;;;;;;17.30;77.70;;;;;;5113009;28;20020;-32
2022/06/08 01:37:17;;;;;;;;;;;17.30;77.50;;;;;;5113245;28;19907;-29
2022/06/08 01:40:24;;;;;;;9.40;7.80;;;17.30;77.40;;;;;;5112832;28;19973;-29
2022/06/08 01:43:06;;;;;;;8.60;7.65;;;17.20;77.50;;;;;;5112774;28;20087;-29
2022/06/08 01:45:56;;;;;;;12.45;8.68;;;17.30;77.70;;;;;;5112493;28;20102;-29
2022/06/08 01:48:30;;;;;;;9.32;8.10;;;17.30;77.80;;;;;;5112877;28;20092;-30
2022/06/08 01:51:01;;;;;;;10.45;8.43;;;17.30;77.80;;;;;;5112365;28;20063;-29
2022/06/08 01:53:33;;;;;;;11.30;9.23;;;17.30;77.90;;;;;;5112270;28;20301;-30
2022/06/08 01:56:16;;;;;;;9.85;8.30;;;17.40;78.00;;;;;;5112531;28;20023;-29
2022/06/08 01:58:48;;;;;;;12.50;8.68;;;17.40;78.10;;;;;;5114020;28;20136;-31
2022/06/08 02:01:29;;;;;;;10.70;9.05;;;17.40;78.00;;;;;;5116377;28;20387;-30
2022/06/08 02:04:03;;;;;;;10.65;9.02;;;17.30;78.70;;;;;;5116156;27;20100;-31
2022/06/08 02:06:52;;;;;;;10.30;9.13;;;17.40;78.20;;;;;;5116228;28;20083;-29
2022/06/08 02:09:28;;;;;;;10.82;8.45;;;17.40;78.30;;;;;;5116028;28;20023;-29
2022/06/08 02:12:05;;;;;;;10.55;9.00;;;17.40;78.30;;;;;;5115809;28;20035;-31
2022/06/08 02:14:49;;;;;;;10.80;9.27;;;17.40;78.40;;;;;;5115854;28;20103;-28
2022/06/08 02:17:28;;;;;;;10.15;8.98;;;17.40;78.40;;;;;;5115814;28;20101;-30
2022/06/08 02:20:01;;;;;;;10.57;8.68;;;17.40;78.50;;;;;;5115618;28;20032;-30
2022/06/08 02:22:39;;;;;;;11.15;9.40;;;17.40;78.50;;;;;;5115898;28;20089;-29
2022/06/08 02:25:09;;;;;;;12.05;9.77;;;17.40;78.60;;;;;;5115548;28;20027;-29
2022/06/08 02:27:41;;;;;;;12.57;10.63;;;17.30;78.60;;;;;;5115842;28;20146;-29
2022/06/08 02:30:21;;;;;;;11.38;9.95;;;17.30;78.70;;;;;;5115692;28;20408;-30
2022/06/08 02:35:47;;;;;;;11.10;9.68;;;17.30;78.80;;;;;;5115811;28;20030;-29
2022/06/08 02:38:18;;;;;;;12.38;10.30;;;17.20;78.90;;;;;;5114116;28;20027;-30
2022/06/08 02:40:49;;;;;;;13.45;10.48;;;17.10;79.00;;;;;;5115288;28;20030;-31
2022/06/08 02:43:27;;;;;;;13.80;11.02;;;17.10;79.20;;;;;;5115351;28;20116;-29
2022/06/08 02:46:16;;;;;;;14.00;11.48;;;17.00;79.50;;;;;;5115257;28;20051;-29
2022/06/08 02:48:42;;;;;;;13.10;11.10;;;17.00;79.60;;;;;;5115237;28;20020;-31
2022/06/08 02:51:08;;;;;;;14.48;11.48;;;17.00;79.70;;;;;;5115211;28;20487;-29
2022/06/08 02:53:34;;;;;;;15.25;12.15;;;16.90;79.70;;;;;;5115278;28;20073;-29
2022/06/08 02:56:08;;;;;;;12.85;11.35;;;16.90;79.80;;;;;;5115046;28;20441;-29
2022/06/08 02:58:46;;;;;;;14.00;11.63;;;16.90;80.00;;;;;;5114958;28;20039;-30
2022/06/08 03:01:21;;;;;;;15.07;11.32;;;16.80;80.10;;;;;;5115223;28;20096;-29
2022/06/08 03:03:54;;;;;;;13.38;11.00;;;16.80;80.20;;;;;;5115035;28;20028;-29
2022/06/08 03:06:27;;;;;;;13.18;10.68;;;16.70;80.30;;;;;;5114801;27;20072;-29
2022/06/08 03:08:59;;;;;;;14.27;11.63;;;16.70;80.40;;;;;;5114964;28;20019;-29
2022/06/08 03:11:32;;;;;;;14.07;11.40;;;16.70;80.40;;;;;;5114738;28;20126;-30
2022/06/08 03:14:05;;;;;;;14.50;11.90;;;16.60;80.40;;;;;;5114606;28;20030;-29
2022/06/08 03:16:34;;;;;;;;;;;16.60;80.60;;;;;;5115123;28;20015;-28
2022/06/08 03:19:01;;;;;;;13.73;11.55;;;16.60;80.50;;;;;;5114584;28;19960;-32
2022/06/08 03:21:27;;;;;;;13.93;11.38;;;16.50;80.50;;;;;;5114735;28;20463;-29
2022/06/08 03:23:54;;;;;;;12.68;11.23;;;16.50;80.70;;;;;;5115015;28;20050;-29
2022/06/08 03:26:21;;;;;;;15.35;12.60;;;16.40;80.80;;;;;;5114966;28;20110;-30
2022/06/08 03:28:47;;;;;;;15.18;12.15;;;16.40;80.90;;;;;;5114350;28;20111;-30
2022/06/08 03:31:13;;;;;;;16.00;12.68;;;16.40;81.00;;;;;;5114333;27;20073;-30
2022/06/08 03:33:38;;;;;;;12.93;11.07;;;16.40;81.00;;;;;;5114121;28;20528;-31
2022/06/08 03:36:04;;;;;;;15.15;11.48;;;16.40;81.00;;;;;;5113042;28;20031;-30
2022/06/08 03:38:30;;;;;;;13.13;10.60;;;16.40;81.10;;;;;;5114235;28;20020;-29
2022/06/08 03:40:56;;;;;;;14.07;11.60;;;16.40;81.10;;;;;;5114467;28;20030;-30
2022/06/08 03:43:21;;;;;;;14.95;11.13;;;16.40;81.10;;;;;;5114618;28;20036;-29
2022/06/08 03:45:53;;;;;;;13.65;11.20;;;16.40;81.10;;;;;;5114268;28;20054;-30
2022/06/08 03:48:19;;;;;;;14.13;11.77;;;16.50;81.20;;;;;;5114477;28;20119;-29
2022/06/08 03:50:49;;;;;;;13.75;11.77;;;16.50;81.10;;;;;;5113990;28;20080;-31
2022/06/08 03:53:20;;;;;;;15.30;11.85;;;16.50;81.20;;;;;;5113894;27;20114;-28
2022/06/08 03:55:49;;;;;;;14.65;12.07;;;16.50;81.20;;;;;;5113906;28;20023;-30
2022/06/08 03:58:14;;;;;;;13.07;11.38;;;16.60;81.10;;;;;;5114065;28;20083;-28
2022/06/08 04:00:41;;;;;;;16.88;12.80;;;16.60;81.10;;;;;;5114114;28;20332;-29
2022/06/08 04:03:09;;;;;;;14.00;12.00;;;16.60;81.10;;;;;;5112451;28;20020;-30
2022/06/08 04:05:35;;;;;;;15.98;13.05;;;16.60;81.10;;;;;;5113709;28;20023;-29
2022/06/08 04:08:01;;;;;;;15.30;12.23;;;16.70;81.10;;;;;;5113610;28;20019;-29
2022/06/08 04:10:27;;;;;;;16.73;12.88;;;16.70;81.00;;;;;;5114098;28;20333;-29
2022/06/08 04:12:52;;;;;;;17.95;13.18;;;16.70;81.00;;;;;;5113580;28;20057;-29
2022/06/08 04:18:03;;;;;;;14.57;11.98;;;16.70;81.00;;;;;;5113806;28;20455;-29
2022/06/08 04:20:29;;;;;;;14.85;13.20;;;16.70;81.00;;;;;;5111660;28;20045;-29
2022/06/08 04:22:54;;;;;;;16.13;13.05;;;16.70;81.70;;;;;;5113340;28;20114;-29
2022/06/08 04:25:20;;;;;;;15.85;13.02;;;16.70;81.20;;;;;;5113484;28;20382;-29
2022/06/08 04:27:45;;;;;;;16.50;13.98;;;16.70;81.20;;;;;;5113270;28;20035;-29
2022/06/08 04:30:12;;;;;;;16.55;13.38;;;16.70;81.90;;;;;;5113283;28;20105;-31
2022/06/08 04:32:37;;;;;;;15.73;13.63;;;16.70;81.30;;;;;;5113357;28;20028;-31
2022/06/08 04:35:04;;;;;;;14.52;13.00;;;16.70;81.40;;;;;;5113149;28;20023;-30
2022/06/08 04:37:30;;;;;;;14.65;12.68;;;16.60;81.30;;;;;;5113181;28;20024;-32
2022/06/08 04:39:55;;;;;;;15.25;13.43;;;16.70;81.40;;;;;;5113400;28;20476;-32
2022/06/08 04:42:21;;;;;;;15.27;13.55;;;16.70;81.40;;;;;;5113198;28;20347;-31
2022/06/08 04:44:46;;;;;;;14.82;13.23;;;16.80;81.30;;;;;;5113242;28;20084;-30
2022/06/08 04:47:12;;;;;;;15.90;14.27;;;16.80;81.30;;;;;;5113073;28;20099;-30
2022/06/08 04:49:38;;;;;;;15.25;13.63;;;16.80;81.30;;;;;;5113254;28;20450;-30
2022/06/08 04:52:05;;;;;;;15.02;13.05;;;16.80;81.30;;;;;;5113507;28;20080;-30
2022/06/08 04:54:31;;;;;;;13.63;12.23;;;16.80;81.20;;;;;;5113239;28;20020;-32
2022/06/08 04:56:57;;;;;;;15.13;13.02;;;16.90;81.20;;;;;;5111702;28;20024;-30
2022/06/08 04:59:23;;;;;;;14.77;12.48;;;16.90;81.20;;;;;;5112863;28;20132;-31
2022/06/08 05:01:48;;;;;;;14.30;12.80;;;17.00;81.20;;;;;;5112917;28;20019;-29
2022/06/08 05:04:14;;;;;;;15.57;13.95;;;17.00;81.20;;;;;;5113135;28;20106;-29
2022/06/08 05:06:40;;;;;;;14.75;13.27;;;17.00;81.20;;;;;;5112866;28;20060;-29
2022/06/08 05:09:05;;;;;;;14.57;12.85;;;17.00;81.20;;;;;;5113164;28;20065;-29
2022/06/08 05:11:31;;;;;;;13.45;12.05;;;17.00;81.20;;;;;;5111700;28;20012;-29
2022/06/08 05:13:56;;;;;;;13.40;12.00;;;17.00;81.20;;;;;;5112788;28;20038;-31
2022/06/08 05:16:23;;;;;;;13.23;11.93;;;17.10;81.20;;;;;;5112915;28;20069;-30
2022/06/08 05:18:49;;;;;;;12.75;11.32;;;17.10;81.10;;;;;;5112829;28;20051;-29
2022/06/08 05:21:15;;;;;;;13.93;12.15;;;17.20;81.10;;;;;;5112760;28;20043;-31
2022/06/08 05:23:43;;;;;;;14.13;12.00;;;17.30;81.10;;;;;;5112926;28;20024;-29
2022/06/08 05:26:10;;;;;;;13.18;11.48;;;17.40;80.90;;;;;;5113515;28;20123;-29
2022/06/08 05:28:36;;;;;;;13.57;11.02;;;17.50;80.80;;;;;;5113265;28;20449;-30
2022/06/08 05:31:01;;;;;;;12.95;11.50;;;17.60;80.60;;;;;;5112956;28;20027;-30
2022/06/08 05:33:28;;;;;;;11.85;10.52;;;17.70;80.50;;;;;;5114424;28;20027;-31
2022/06/08 05:35:54;;;;;;;12.65;9.82;;;17.80;80.40;;;;;;5115412;28;20591;-29
2022/06/08 05:38:20;;;;;;;11.93;10.70;;;17.90;80.20;;;;;;5116784;27;20018;-30
2022/06/08 05:40:46;;;;;;;11.60;10.40;;;18.00;80.20;;;;;;5116445;28;20020;-29
2022/06/08 05:43:13;;;;;;;12.07;10.13;;;18.10;80.10;;;;;;5116912;28;20024;-30
2022/06/08 05:45:40;;;;;;;11.13;9.93;;;18.10;80.00;;;;;;5116584;28;20463;-28
2022/06/08 05:48:07;;;;;;;11.38;10.20;;;18.20;80.00;;;;;;5116465;28;20471;-29
2022/06/08 05:50:34;;;;;;;11.05;9.95;;;18.20;79.90;;;;;;5114948;28;20023;-29
2022/06/08 05:53:00;;;;;;;10.95;9.68;;;18.20;79.90;;;;;;5115972;28;20032;-32
2022/06/08 05:55:26;;;;;;;11.00;9.90;;;18.20;79.80;;;;;;5116326;28;20068;-29
2022/06/08 05:57:52;;;;;;;11.90;9.80;;;18.20;79.80;;;;;;5114625;28;20098;-31
2022/06/08 06:00:22;;;;;;;10.40;9.40;;;18.30;79.80;;;;;;5116323;28;20509;-28
2022/06/08 06:02:48;;;;;;;10.20;9.20;;;18.30;79.80;;;;;;5116484;28;20118;-29
2022/06/08 06:05:19;;;;;;;10.25;8.85;;;18.30;79.70;;;;;;5116059;28;20055;-30
2022/06/08 06:07:45;;;;;;;9.38;8.43;;;18.30;79.70;;;;;;5115873;28;20027;-30
2022/06/08 06:10:12;;;;;;;10.10;9.10;;;18.40;79.60;;;;;;5116252;28;20028;-28
2022/06/08 06:12:37;;;;;;;9.48;8.48;;;18.40;79.50;;;;;;5116025;28;20039;-29
2022/06/08 06:15:04;;;;;;;9.38;8.48;;;18.40;79.50;;;;;;5116255;28;20016;-30
2022/06/08 06:17:30;;;;;;;10.18;8.50;;;18.50;79.50;;;;;;5116134;28;20502;-29
2022/06/08 06:19:56;;;;;;;10.23;8.75;;;18.50;79.30;;;;;;5115939;28;20443;-31
2022/06/08 06:22:22;;;;;;;7.68;6.88;;;18.60;79.30;;;;;;5114306;28;20114;-28
2022/06/08 06:24:48;;;;;;;10.57;8.18;;;18.60;79.10;;;;;;5115725;28;20024;-28
2022/06/08 06:27:14;;;;;;;8.43;7.20;;;18.70;78.90;;;;;;5115573;28;20018;-28
2022/06/08 06:29:39;;;;;;;8.38;6.88;;;18.70;78.90;;;;;;5115571;28;20051;-29
2022/06/08 06:32:31;;;;;;;7.72;6.85;;;18.80;78.70;;;;;;5114272;28;20019;-30
2022/06/08 06:34:58;;;;;;;7.13;6.43;;;18.90;78.70;;;;;;5115713;28;20072;-29
2022/06/08 06:37:25;;;;;;;7.60;6.80;;;18.90;78.60;;;;;;5115353;28;20023;-28
2022/06/08 06:39:51;;;;;;;7.57;6.47;;;18.90;78.50;;;;;;5115658;28;20023;-28
2022/06/08 06:42:19;;;;;;;7.82;6.10;;;19.00;78.40;;;;;;5115504;28;20394;-30
2022/06/08 06:44:45;;;;;;;7.38;6.45;;;19.00;78.40;;;;;;5113487;28;20051;-28
2022/06/08 06:47:11;;;;;;;6.70;5.75;;;19.10;78.20;;;;;;5115389;28;20536;-29
2022/06/08 06:49:37;;;;;;;6.82;5.55;;;19.10;78.10;;;;;;5115706;28;20409;-28
2022/06/08 06:52:03;;;;;;;6.03;4.53;;;19.10;78.00;;;;;;5115210;28;20028;-29
2022/06/08 06:54:29;;;;;;;5.28;4.57;;;19.20;77.90;;;;;;5115341;28;20031;-29
2022/06/08 06:56:54;;;;;;;5.25;4.75;;;19.20;77.70;;;;;;5115440;28;20028;-29
2022/06/08 06:59:21;;;;;;;6.78;5.18;;;19.20;77.60;;;;;;5115157;28;20089;-28
2022/06/08 07:01:47;;;;;;;6.07;4.78;;;19.20;77.50;;;;;;5114990;28;20031;-30
2022/06/08 07:04:12;;;;;;;4.85;4.35;;;19.30;77.40;;;;;;5113832;28;20024;-30
2022/06/08 07:06:38;;;;;;;4.82;4.30;;;19.30;77.30;;;;;;5114789;28;20027;-30
2022/06/08 07:09:03;;;;;;;5.72;4.50;;;19.30;77.10;;;;;;5114874;28;20042;-28
2022/06/08 07:11:37;;;;;;;4.20;3.80;;;19.40;77.10;;;;;;5115083;28;20078;-29
2022/06/08 07:14:05;;;;;;;5.78;3.97;;;19.50;77.00;;;;;;5115301;28;20050;-29
2022/06/08 07:16:32;;;;;;;5.00;4.13;;;19.50;76.90;;;;;;5114783;28;20161;-28
2022/06/08 07:18:58;;;;;;;5.00;4.15;;;19.50;76.70;;;;;;5114980;28;20581;-28
2022/06/08 07:21:24;;;;;;;4.70;3.95;;;19.50;76.60;;;;;;5114963;28;20096;-29
2022/06/08 07:23:50;;;;;;;6.47;4.05;;;19.50;76.50;;;;;;5114697;28;20051;-28
2022/06/08 07:26:17;;;;;;;3.83;3.38;;;19.50;76.40;;;;;;5114936;28;20012;-30
2022/06/08 07:28:43;;;;;;;4.65;3.58;;;19.60;76.40;;;;;;5115009;28;20386;-30
2022/06/08 07:31:12;;;;;;;5.30;3.65;;;19.60;76.40;;;;;;5115242;28;20024;-29
2022/06/08 07:33:38;;;;;;;3.83;3.53;;;19.60;76.30;;;;;;5114712;28;20448;-34
2022/06/08 07:36:05;;;;;;;5.00;3.80;;;19.60;76.20;;;;;;5114479;28;20098;-30
2022/06/08 07:38:31;;;;;;;3.35;3.05;;;19.60;76.10;;;;;;5113050;28;20110;-29
2022/06/08 07:40:57;;;;;;;4.53;3.50;;;19.60;76.10;;;;;;5112940;28;20020;-28
2022/06/08 07:43:23;;;;;;;5.82;3.40;;;19.60;75.90;;;;;;5114611;28;20490;-28
2022/06/08 07:45:49;;;;;;;3.75;3.45;;;19.60;75.60;;;;;;5114322;28;20024;-29
2022/06/08 07:50:59;;;;;;;2.90;2.67;;;19.80;75.50;;;;;;5114460;28;20036;-31
2022/06/08 07:53:24;;;;;;;3.67;3.05;;;19.80;75.40;;;;;;5114366;28;20036;-31
2022/06/08 07:55:50;;;;;;;5.18;3.30;;;19.90;75.20;;;;;;5113559;28;20016;-29
2022/06/08 07:58:16;;;;;;;3.92;2.97;;;19.90;75.00;;;;;;5114166;28;20372;-31
2022/06/08 08:00:47;;;;;;;3.28;2.58;;;20.00;74.90;;;;;;5113948;28;20019;-32
2022/06/08 08:03:17;;;;;;;4.82;3.33;;;20.10;74.60;;;;;;5113886;28;20020;-32
2022/06/08 08:05:44;;;;;;;3.58;2.30;;;20.10;74.40;;;;;;5112606;28;20448;-31
2022/06/08 08:08:11;;;;;;;2.72;2.50;;;20.20;74.40;;;;;;5114231;28;20024;-29
2022/06/08 08:10:37;;;;;;;3.42;2.85;;;20.20;74.20;;;;;;5113780;28;20027;-31
2022/06/08 08:13:03;;;;;;;3.92;2.70;;;20.40;74.20;;;;;;5113740;28;20028;-30
2022/06/08 08:15:29;;;;;;;3.55;2.63;;;20.50;73.90;;;;;;5112542;28;20016;-33
2022/06/08 08:17:56;;;;;;;4.53;2.72;;;20.70;73.80;;;;;;5114174;28;20131;-29
2022/06/08 08:20:24;;;;;;;2.83;2.58;;;20.70;73.30;;;;;;5113820;28;20030;-32
2022/06/08 08:22:50;;;;;;;4.90;2.30;;;20.80;73.20;;;;;;5114070;28;20023;-31
2022/06/08 08:25:17;;;;;;;3.25;2.53;;;20.90;73.00;;;;;;5113790;28;20049;-30
2022/06/08 08:27:44;;;;;;;3.78;2.60;;;21.00;72.80;;;;;;5113713;28;20023;-30
2022/06/08 08:30:16;;;;;;;2.72;2.25;;;21.10;72.70;;;;;;5113640;28;20051;-30
2022/06/08 08:32:41;;;;;;;2.15;1.75;;;21.30;72.50;;;;;;5113498;28;20516;-33
2022/06/08 08:35:08;;;;;;;3.17;2.10;;;21.40;72.30;;;;;;5113771;28;20046;-30
2022/06/08 08:37:34;;;;;;;4.80;2.30;;;21.50;72.00;;;;;;5113266;28;20020;-30
2022/06/08 08:39:59;;;;;;;4.22;2.35;;;21.50;71.70;;;;;;5113062;28;20024;-28
2022/06/08 08:42:26;;;;;;;2.78;2.08;;;21.60;72.10;;;;;;5112992;28;20354;-30
2022/06/08 08:44:53;;;;;;;4.43;2.00;;;21.70;71.30;;;;;;5113191;28;20459;-29
2022/06/08 08:47:48;;;;;;;5.05;1.98;;;21.70;70.80;;;;;;5113378;28;20027;-32
2022/06/08 08:50:25;;;;;;;3.22;1.98;;;21.70;70.40;;;;;;5112861;28;20483;-31
2022/06/08 08:53:13;;;;;;;4.35;1.90;;;21.80;70.20;;;;;;5112679;28;20032;-29
2022/06/08 08:56:09;;;;;;;6.18;1.90;;;21.80;70.10;;;;;;5112934;28;20016;-29
2022/06/08 08:58:38;;;;;;;2.45;1.80;;;21.90;70.00;;;;;;5112667;28;20104;-30
2022/06/08 09:01:22;;;;;;;3.35;1.70;;;22.00;69.80;;;;;;5112756;28;20069;-29
2022/06/08 09:03:56;;;;;;;3.13;1.90;;;22.20;69.50;;;;;;5112898;28;20378;-30
2022/06/08 09:06:26;;;;;;;2.03;1.67;;;22.20;69.20;;;;;;5112742;28;20456;-30
2022/06/08 09:08:54;;;;;;;3.70;2.10;;;22.30;68.80;;;;;;5116748;28;20015;-31
2022/06/08 09:11:26;;;;;;;3.28;1.70;;;22.30;68.50;;;;;;5117336;28;20024;-31
2022/06/08 09:13:55;;;;;;;3.10;1.80;;;22.30;68.40;;;;;;5116825;28;20382;-34
2022/06/08 09:16:43;;;;;;;4.03;1.80;;;22.30;68.20;;;;;;5115890;28;20018;-34
2022/06/08 09:19:30;;;;;;;3.28;2.08;;;22.30;68.00;;;;;;5116892;28;20073;-30
2022/06/08 09:22:08;;;;;;;2.65;1.83;;;22.40;67.70;;;;;;5116610;28;20119;-31
2022/06/08 09:24:41;;;;;;;5.22;2.30;;;22.40;67.70;;;;;;5116835;28;20027;-31
2022/06/08 09:27:22;;;;;;;3.08;1.88;;;22.40;67.50;;;;;;5116735;28;20035;-30
2022/06/08 09:30:08;;;;;;;3.58;2.00;;;22.40;67.30;;;;;;5116726;28;20020;-34
2022/06/08 09:32:49;;;;;;;2.47;2.03;;;22.40;67.20;;;;;;5116606;27;20038;-33
2022/06/08 09:35:28;;;;;;;4.32;2.03;;;22.40;67.10;;;;;;5116751;28;20133;-30
2022/06/08 09:38:14;;;;;;;4.97;2.30;;;22.40;67.10;;;;;;5116366;28;20020;-31
2022/06/08 09:40:44;;;;;;;4.57;2.17;;;22.30;67.00;;;;;;5116375;28;20028;-34
2022/06/08 09:43:32;;;;;;;2.50;1.95;;;22.20;67.10;;;;;;5116632;28;20102;-30
2022/06/08 09:51:25;;;;;;;3.10;2.17;;;22.10;67.40;;;;;;5116254;28;20024;-30
2022/06/08 09:52:27;;;;;;;3.50;1.80;;;22.20;67.50;;;;;;5116308;28;19910;-31
2022/06/08 09:55:31;;;;;;;4.43;2.17;;;22.30;68.10;;;;;;5114683;28;20055;-32
2022/06/08 09:58:27;;;;;;;5.07;2.10;;;22.30;67.20;;;;;;5095757;28;20039;-33
2022/06/08 10:01:03;;;;;;;4.20;1.90;;;22.30;66.70;;;;;;5115925;28;20479;-53
2022/06/08 10:03:54;;;;;;;4.05;1.95;;;22.30;66.80;;;;;;5116218;28;20313;-31
2022/06/08 10:06:58;;;;;;;4.10;1.70;;;22.30;66.60;;;;;;5116085;28;20065;-30
2022/06/08 10:09:31;;;;;;;3.60;1.80;;;22.20;66.60;;;;;;5116266;28;20028;-33
2022/06/08 10:12:05;;;;;;;3.63;1.77;;;22.20;66.50;;;;;;5116055;27;20035;-34
2022/06/08 10:14:56;;;;;;;2.92;1.90;;;22.30;66.30;;;;;;5115852;28;20016;-30
2022/06/08 10:17:47;;;;;;;3.35;1.67;;;22.20;66.30;;;;;;5114711;28;20043;-50
2022/06/08 10:20:23;;;;;;;3.85;1.70;;;22.20;66.50;;;;;;5113592;28;20063;-36
2022/06/08 10:22:56;;;;;;;3.97;1.58;;;22.20;66.50;;;;;;5115705;28;20028;-32
2022/06/08 10:25:40;;;;;;;2.73;1.50;;;22.20;66.40;;;;;;5115680;28;20038;-30
2022/06/08 10:28:22;;;;;;;4.38;2.03;;;22.20;66.40;;;;;;5115542;28;20031;-35
2022/06/08 10:31:02;;;;;;;3.85;1.80;;;22.20;66.40;;;;;;5115711;28;20023;-33
2022/06/08 10:33:37;;;;;;;4.80;1.90;;;22.00;66.60;;;;;;5115308;28;20023;-31
2022/06/08 10:36:04;;;;;;;3.83;1.70;;;21.90;67.60;;;;;;5115413;28;20019;-33
2022/06/08 10:38:32;;;;;;;2.85;1.55;;;21.80;67.20;;;;;;5115450;28;20122;-31
2022/06/08 10:41:04;;;;;;;2.97;1.70;;;21.80;67.30;;;;;;5115526;28;20085;-33
2022/06/08 10:43:50;;;;;;;2.55;1.60;;;21.80;67.10;;;;;;5115327;28;20407;-32
2022/06/08 10:46:43;;;;;;;2.05;1.40;;;21.80;67.20;;;;;;5115395;27;20023;-32
2022/06/08 10:49:18;;;;;;;5.63;1.90;;;21.80;67.20;;;;;;5115792;28;20015;-34
2022/06/08 10:51:44;;;;;;;3.75;1.67;;;21.80;67.00;;;;;;5115506;28;20020;-34
2022/06/08 10:57:37;;;;;;;4.72;1.70;;;21.80;65.90;;;;;;5115335;28;20444;-33
2022/06/08 11:00:18;;;;;;;3.65;1.42;;;21.70;66.00;;;;;;5115032;28;20043;-35
2022/06/08 11:02:52;;;;;;;4.85;1.70;;;21.60;66.20;;;;;;5115300;27;20387;-34
2022/06/08 11:05:31;;;;;;;3.92;1.50;;;21.50;66.30;;;;;;5114945;28;20023;-30
2022/06/08 11:08:04;;;;;;;2.97;1.45;;;21.30;66.80;;;;;;5114978;28;20024;-31
2022/06/08 11:10:52;;;;;;;;;;;21.10;67.50;;;;;;5115637;28;20032;-33
2022/06/08 11:15:52;;;;;;;3.05;1.58;;;20.60;69.10;;;;;;5115202;28;20020;-31
2022/06/08 11:18:27;;;;;;;3.47;1.30;;;20.50;70.00;;;;;;5114900;28;20043;-32
2022/06/08 11:20:59;;;;;;;6.10;1.60;;;20.40;70.60;;;;;;5115071;28;20049;-33
2022/06/08 11:23:31;;;;;;;4.50;2.00;;;20.30;70.80;;;;;;5114778;28;20046;-32
2022/06/08 11:26:23;;;;;;;4.25;1.63;;;20.30;71.10;;;;;;5115208;27;20087;-30
2022/06/08 11:29:18;;;;;;;5.07;1.90;;;20.30;71.40;;;;;;5114526;28;20039;-31
2022/06/08 11:31:43;;;;;;;4.32;1.80;;;20.20;71.50;;;;;;5114231;28;20027;-30
2022/06/08 11:34:32;;;;;;;2.80;1.67;;;20.20;71.60;;;;;;5114412;28;20023;-33
2022/06/08 11:37:31;;;;;;;3.38;1.60;;;20.30;71.80;;;;;;5112681;28;20111;-31
2022/06/08 11:40:14;;;;;;;4.63;1.80;;;20.30;71.70;;;;;;5114345;28;20402;-35
2022/06/08 11:42:51;;;;;;;;;;;20.40;71.70;;;;;;5114726;28;20087;-30
2022/06/08 11:45:23;;;;;;;4.32;1.40;;;20.50;71.20;;;;;;5114197;28;19904;-32
2022/06/08 11:48:13;;;;;;;4.07;1.48;;;20.40;71.20;;;;;;5114105;28;20024;-30
2022/06/08 11:51:07;;;;;;;3.80;1.80;;;20.40;71.30;;;;;;5114770;28;20486;-30
2022/06/08 11:53:40;;;;;;;7.70;2.15;;;20.40;71.30;;;;;;5104883;28;20144;-32
2022/06/08 11:56:27;;;;;;;4.53;1.58;;;20.40;71.40;;;;;;5112833;28;20106;-31
2022/06/08 11:58:57;;;;;;;2.88;1.40;;;20.40;71.50;;;;;;5114145;28;20505;-33
2022/06/08 12:01:30;;;;;;;3.83;1.67;;;20.30;71.60;;;;;;5113968;28;20111;-31
2022/06/08 12:04:03;;;;;;;5.43;1.85;;;20.20;71.80;;;;;;5114072;28;20122;-30
2022/06/08 12:06:35;;;;;;;3.67;1.55;;;20.20;71.80;;;;;;5113822;28;20028;-31
2022/06/08 12:09:21;;;;;;;4.32;1.50;;;20.10;72.10;;;;;;5114266;28;20075;-31
2022/06/08 12:11:52;;;;;;;4.72;1.70;;;20.00;72.30;;;;;;5114188;28;20023;-30
2022/06/08 12:14:26;;;;;;;2.38;1.63;;;19.90;72.50;;;;;;5112363;28;20032;-31
2022/06/08 12:17:05;;;;;;;4.55;1.70;;;19.90;72.90;;;;;;5113969;28;20030;-32
2022/06/08 12:19:46;;;;;;;5.20;2.10;;;19.80;73.30;;;;;;5113833;28;20031;-31
2022/06/08 12:22:22;;;;;;;3.13;1.75;;;19.80;73.60;;;;;;5114267;28;20020;-30
2022/06/08 12:25:24;;;;;;;4.40;1.77;;;19.80;73.80;;;;;;5113593;28;20119;-30
2022/06/08 12:28:00;;;;;;;4.10;1.58;;;19.80;73.90;;;;;;5054231;28;20116;-36
2022/06/08 12:30:43;;;;;;;4.22;1.60;;;19.70;73.90;;;;;;5108481;28;20059;-31
2022/06/08 12:33:16;;;;;;;3.65;1.67;;;19.70;74.10;;;;;;5113440;28;20081;-31
2022/06/08 12:36:08;;;;;;;4.80;1.83;;;19.60;74.10;;;;;;5113957;28;20028;-31
2022/06/08 12:38:37;;;;;;;3.20;1.38;;;19.60;74.20;;;;;;5113818;28;20032;-31
2022/06/08 12:41:15;;;;;;;4.57;1.70;;;19.60;74.40;;;;;;5113684;28;20076;-31
2022/06/08 12:43:51;;;;;;;3.63;1.65;;;19.60;74.40;;;;;;5113078;28;20030;-30
2022/06/08 12:46:23;;;;;;;3.72;1.80;;;19.60;74.50;;;;;;5112157;28;20028;-36
2022/06/08 12:48:58;;;;;;;3.65;1.70;;;19.60;74.70;;;;;;5113696;28;20371;-33
2022/06/08 12:51:30;;;;;;;4.35;1.90;;;19.60;74.90;;;;;;5113642;28;20047;-30
2022/06/08 12:54:10;;;;;;;5.63;1.90;;;19.70;75.20;;;;;;5113438;28;20114;-30
2022/06/08 12:56:36;;;;;;;5.10;2.00;;;19.80;75.40;;;;;;5113315;28;20015;-30
2022/06/08 12:59:01;;;;;;;5.40;1.92;;;19.70;75.40;;;;;;5113195;28;20055;-32
2022/06/08 13:01:29;;;;;;;4.38;1.67;;;19.70;75.60;;;;;;5113261;28;20023;-30
2022/06/08 13:03:56;;;;;;;3.05;1.70;;;19.60;75.80;;;;;;5113301;28;20099;-31
2022/06/08 13:06:24;;;;;;;3.85;1.90;;;19.60;76.00;;;;;;5113257;28;20067;-32
2022/06/08 13:08:50;;;;;;;3.55;1.73;;;19.50;76.10;;;;;;5113123;28;20027;-31
2022/06/08 13:11:20;;;;;;;3.92;2.20;;;19.60;76.40;;;;;;5113337;28;20470;-31
2022/06/08 13:13:47;;;;;;;2.30;1.40;;;19.50;76.60;;;;;;5113147;28;20024;-32
2022/06/08 13:16:17;;;;;;;2.75;1.80;;;19.50;76.60;;;;;;5113363;28;20019;-32
2022/06/08 13:18:43;;;;;;;2.35;1.60;;;19.60;76.80;;;;;;5113105;28;20471;-32
2022/06/08 13:21:11;;;;;;;2.05;1.40;;;19.60;76.80;;;;;;5113093;28;20020;-30
2022/06/08 13:23:37;;;;;;;4.75;1.48;;;19.60;76.80;;;;;;5113261;28;20046;-32
2022/06/08 13:26:03;;;;;;;2.90;1.50;;;19.50;76.80;;;;;;5113339;28;20015;-32